Time;durP1;ratioP1;P1;durP2;ratioP2;P2;SDS_P1;SDS_P2;PMS_P1;PMS_P2;Temp;Humidity;BMP_temperature;BMP_pressure;BME280_temperature;BME280_humidity;BME280_pressure;Samples;Min_cycle;Max_cycle;Signal;HPM_P1;HPM_P2
2023/03/06 00:00:05;;;;;;;9.47;5.07;;;0.30;1.00;;;2.41;100.00;94779.53;5028176;28;20223;-66
2023/03/06 00:02:32;;;;;;;7.83;4.90;;;0.30;1.00;;;2.42;100.00;94783.75;5026610;28;20217;-67
2023/03/06 00:04:58;;;;;;;9.90;5.30;;;0.30;1.00;;;2.48;100.00;94771.50;5028605;28;20202;-67
2023/03/06 00:07:26;;;;;;;9.43;5.27;;;0.30;1.00;;;2.50;100.00;94772.09;5024798;28;20609;-66
2023/03/06 00:09:53;;;;;;;9.17;5.73;;;0.30;1.00;;;2.35;100.00;94769.91;5027119;28;20222;-66
2023/03/06 00:12:20;;;;;;;9.23;4.90;;;0.30;1.00;;;2.47;100.00;94764.63;5025566;28;20230;-67
2023/03/06 00:14:47;;;;;;;9.67;5.80;;;0.30;1.00;;;2.30;100.00;94763.75;5025990;28;20215;-67
2023/03/06 00:17:14;;;;;;;11.33;5.57;;;0.30;1.00;;;2.36;100.00;94763.63;5026556;28;20221;-66
2023/03/06 00:19:40;;;;;;;10.03;5.47;;;0.20;1.00;;;2.33;100.00;94761.44;5031288;28;20210;-66
2023/03/06 00:22:08;;;;;;;8.77;5.10;;;0.20;1.00;;;2.32;100.00;94749.34;5023092;28;20211;-67
2023/03/06 00:24:36;;;;;;;10.77;5.57;;;0.20;1.00;;;2.31;100.00;94746.94;5029282;28;20238;-66
2023/03/06 00:27:03;;;;;;;11.43;5.43;;;0.10;1.00;;;2.31;100.00;94749.56;5028206;28;20214;-67
2023/03/06 00:29:30;;;;;;;9.13;5.33;;;0.10;1.00;;;2.21;100.00;94751.97;5029979;28;20214;-67
2023/03/06 00:31:56;;;;;;;10.40;5.27;;;0.10;1.00;;;2.16;100.00;94744.75;5029785;28;20209;-67
2023/03/06 00:34:23;;;;;;;8.03;4.50;;;0.10;1.00;;;2.22;100.00;94745.66;5027820;28;20611;-66
2023/03/06 00:36:50;;;;;;;10.00;5.23;;;0.00;1.00;;;2.16;100.00;94747.38;5026906;28;20268;-66
2023/03/06 00:39:17;;;;;;;11.73;5.70;;;0.00;1.00;;;2.09;100.00;94738.78;5030647;28;20602;-67
2023/03/06 00:41:45;;;;;;;10.33;5.50;;;0.00;1.00;;;2.04;100.00;94733.41;5027461;28;20276;-67
2023/03/06 00:44:12;;;;;;;15.13;5.43;;;-0.10;1.00;;;2.06;100.00;94735.81;5029109;28;20206;-67
2023/03/06 00:46:39;;;;;;;8.63;4.90;;;-0.10;1.00;;;2.08;100.00;94731.94;5022553;28;20210;-66
2023/03/06 00:49:05;;;;;;;9.20;5.03;;;-0.10;1.00;;;2.03;100.00;94734.44;5030837;28;20203;-66
2023/03/06 00:51:32;;;;;;;11.77;4.97;;;-0.10;1.00;;;1.94;100.00;94730.56;5027001;28;20213;-66
2023/03/06 00:53:59;;;;;;;9.70;5.37;;;-0.10;1.00;;;1.94;100.00;94732.41;5030549;28;20291;-66
2023/03/06 00:56:26;;;;;;;9.53;4.90;;;-0.20;1.00;;;1.83;100.00;94720.06;5026772;28;20210;-67
2023/03/06 00:58:54;;;;;;;9.80;5.40;;;-0.20;1.00;;;1.96;100.00;94723.25;5031316;28;20264;-67
2023/03/06 01:01:21;;;;;;;9.67;5.07;;;-0.20;1.00;;;1.80;100.00;94723.13;5026839;28;20222;-66
2023/03/06 01:03:48;;;;;;;10.50;5.33;;;-0.30;1.00;;;1.86;100.00;94720.41;5024664;28;20258;-66
2023/03/06 01:06:16;;;;;;;12.23;6.13;;;-0.30;1.00;;;1.83;100.00;94726.09;5020417;28;20219;-67
2023/03/06 01:08:43;;;;;;;10.73;5.87;;;-0.20;1.00;;;1.86;100.00;94728.28;5033040;28;20210;-66
2023/03/06 01:11:09;;;;;;;10.47;6.17;;;-0.30;1.00;;;1.94;100.00;94721.88;5025467;28;20719;-66
2023/03/06 01:13:36;;;;;;;10.60;5.93;;;-0.30;1.00;;;1.93;100.00;94715.81;5025320;28;20222;-67
2023/03/06 01:16:10;;;;;;;11.00;5.77;;;-0.30;1.00;;;1.95;100.00;94712.97;5031090;28;20256;-66
2023/03/06 01:18:37;;;;;;;10.10;6.03;;;-0.30;1.00;;;2.04;100.00;94716.88;5025970;28;20206;-67
2023/03/06 01:21:05;;;;;;;10.43;6.07;;;-0.30;1.00;;;2.02;100.00;94701.31;5023778;28;20296;-67
2023/03/06 01:23:32;;;;;;;13.93;6.70;;;-0.30;1.00;;;2.04;100.00;94707.13;5025205;28;20723;-66
2023/03/06 01:26:00;;;;;;;11.53;6.20;;;-0.20;1.00;;;1.95;100.00;94699.81;5028595;28;20214;-66
2023/03/06 01:28:27;;;;;;;9.30;5.57;;;-0.30;1.00;;;2.09;100.00;94694.09;5027228;28;20256;-66
2023/03/06 01:30:54;;;;;;;9.97;5.53;;;-0.20;1.00;;;1.94;100.00;94696.38;5027641;28;20214;-67
2023/03/06 01:33:22;;;;;;;10.43;5.77;;;-0.20;1.00;;;1.99;100.00;94685.97;5028964;28;20308;-66
2023/03/06 01:35:49;;;;;;;11.57;6.07;;;-0.20;1.00;;;1.95;100.00;94687.50;5026163;28;20206;-67
2023/03/06 01:38:15;;;;;;;12.47;6.00;;;-0.20;1.00;;;2.08;100.00;94681.97;5028059;28;20259;-66
2023/03/06 01:40:42;;;;;;;10.37;5.83;;;-0.20;1.00;;;1.94;100.00;94685.09;5036466;28;20210;-66
2023/03/06 01:43:12;;;;;;;10.70;6.00;;;-0.20;1.00;;;2.05;100.00;94689.53;5025918;28;20253;-66
2023/03/06 01:46:18;;;;;;;11.67;5.97;;;-0.20;1.00;;;2.04;100.00;94680.84;5028211;28;20871;-67
2023/03/06 01:48:48;;;;;;;9.93;5.40;;;-0.20;1.00;;;2.08;100.00;94671.47;5031669;28;20540;-66
2023/03/06 01:51:16;;;;;;;10.87;5.67;;;-0.10;1.00;;;2.04;100.00;94665.06;5028423;28;20603;-67
2023/03/06 01:53:43;;;;;;;9.53;4.83;;;-0.10;1.00;;;2.06;100.00;94663.03;5029748;28;20226;-66
2023/03/06 01:56:11;;;;;;;11.40;5.77;;;-0.10;1.00;;;2.04;100.00;94653.75;5026522;28;20207;-67
2023/03/06 01:58:39;;;;;;;10.97;5.63;;;-0.10;1.00;;;2.06;100.00;94647.25;5027485;28;20714;-67
2023/03/06 02:01:06;;;;;;;9.13;5.53;;;-0.10;1.00;;;2.06;100.00;94649.88;5027446;28;20280;-67
2023/03/06 02:03:33;;;;;;;9.57;5.67;;;-0.10;1.00;;;2.02;100.00;94655.81;5027892;28;20561;-66
2023/03/06 02:06:02;;;;;;;10.40;5.63;;;-0.20;1.00;;;2.05;100.00;94653.53;5029422;28;20260;-66
2023/03/06 02:08:29;;;;;;;11.93;6.17;;;-0.10;1.00;;;2.10;100.00;94651.03;5029579;28;20210;-66
2023/03/06 02:11:02;;;;;;;11.30;5.27;;;0.00;1.00;;;2.04;100.00;94651.13;5029834;28;20228;-67
2023/03/06 02:13:29;;;;;;;8.57;4.63;;;-0.10;1.00;;;2.06;100.00;94634.09;5027321;28;20716;-66
2023/03/06 02:15:56;;;;;;;7.93;5.23;;;-0.10;1.00;;;2.16;100.00;94642.19;5031959;28;20644;-66
2023/03/06 02:18:23;;;;;;;12.03;6.63;;;-0.10;1.00;;;2.10;100.00;94627.34;5029438;28;20214;-67
2023/03/06 02:20:53;;;;;;;8.87;4.80;;;0.00;1.00;;;2.12;100.00;94627.91;5028132;28;20224;-66
2023/03/06 02:23:30;;;;;;;9.53;5.30;;;0.00;1.00;;;2.22;100.00;94616.78;5025504;28;20728;-67
2023/03/06 02:25:59;;;;;;;9.60;5.20;;;0.00;1.00;;;2.15;100.00;94619.56;5028094;28;20205;-66
2023/03/06 02:28:27;;;;;;;12.23;5.13;;;0.00;1.00;;;2.13;100.00;94618.22;5024553;28;20210;-67
2023/03/06 02:30:56;;;;;;;10.93;5.27;;;0.00;1.00;;;2.19;100.00;94610.16;5028380;28;20260;-66
2023/03/06 02:33:26;;;;;;;12.67;6.33;;;0.00;1.00;;;2.21;100.00;94615.19;5025844;28;20230;-66
2023/03/06 02:35:56;;;;;;;8.93;4.93;;;0.00;1.00;;;2.17;100.00;94604.34;5026945;28;20202;-67
2023/03/06 02:38:28;;;;;;;11.03;5.20;;;0.00;1.00;;;2.25;100.00;94609.22;5028968;28;20264;-67
2023/03/06 02:40:56;;;;;;;7.77;4.50;;;0.00;1.00;;;2.25;100.00;94609.22;5026259;28;20257;-67
2023/03/06 02:43:32;;;;;;;9.20;5.03;;;0.00;1.00;;;2.28;100.00;94606.16;5027473;28;20636;-66
2023/03/06 02:45:59;;;;;;;10.17;5.47;;;0.00;1.00;;;2.24;100.00;94612.13;5029969;28;20651;-67
2023/03/06 02:48:26;;;;;;;8.57;5.07;;;0.00;1.00;;;2.18;100.00;94597.28;5031031;28;20214;-66
2023/03/06 02:50:53;;;;;;;10.50;5.33;;;0.00;1.00;;;2.26;100.00;94602.97;5032435;28;20271;-66
2023/03/06 02:53:20;;;;;;;11.43;5.60;;;0.00;1.00;;;2.29;100.00;94599.06;5027565;28;20276;-66
2023/03/06 02:55:48;;;;;;;12.60;5.97;;;0.00;1.00;;;2.21;100.00;94602.88;5030564;28;20554;-67
2023/03/06 02:58:15;;;;;;;9.27;5.07;;;0.00;1.00;;;2.20;100.00;94601.25;5032832;28;20206;-66
2023/03/06 03:00:43;;;;;;;11.63;5.20;;;0.00;1.00;;;2.28;100.00;94598.25;5032001;28;20218;-67
2023/03/06 03:03:09;;;;;;;13.10;6.47;;;0.00;1.00;;;2.20;100.00;94592.56;5030001;28;20211;-67
2023/03/06 03:05:36;;;;;;;9.67;6.07;;;0.00;1.00;;;2.21;100.00;94588.91;5031613;28;20657;-66
2023/03/06 03:08:04;;;;;;;10.53;6.00;;;0.00;1.00;;;2.23;100.00;94592.09;5032490;28;20206;-67
2023/03/06 03:10:38;;;;;;;11.57;6.90;;;0.00;1.00;;;2.13;100.00;94595.31;5032300;28;20260;-67
2023/03/06 03:13:05;;;;;;;16.00;6.30;;;0.00;1.00;;;2.17;100.00;94595.66;5028690;28;20222;-67
2023/03/06 03:15:31;;;;;;;11.23;5.97;;;0.00;1.00;;;2.18;100.00;94587.53;5031667;28;20252;-66
2023/03/06 03:17:59;;;;;;;11.37;6.20;;;-0.10;1.00;;;2.13;100.00;94584.81;5025647;28;20785;-66
2023/03/06 03:20:26;;;;;;;12.47;6.03;;;-0.10;1.00;;;2.16;100.00;94596.69;5031068;28;20218;-66
2023/03/06 03:22:55;;;;;;;13.57;6.23;;;-0.10;1.00;;;2.16;100.00;94596.69;5028146;28;20272;-67
2023/03/06 03:25:24;;;;;;;9.43;5.33;;;-0.10;1.00;;;2.05;100.00;94603.59;5029037;28;20209;-66
2023/03/06 03:27:51;;;;;;;9.93;5.10;;;-0.10;1.00;;;2.15;100.00;94600.34;5029828;28;20261;-66
2023/03/06 03:30:19;;;;;;;9.90;5.97;;;-0.10;1.00;;;2.16;100.00;94597.50;5033985;28;20268;-66
2023/03/06 03:32:46;;;;;;;11.07;5.63;;;-0.10;1.00;;;2.16;100.00;94597.50;5029055;28;20268;-66
2023/03/06 03:35:14;;;;;;;12.67;6.53;;;-0.10;1.00;;;2.20;100.00;94580.19;5029705;28;20214;-66
2023/03/06 03:37:41;;;;;;;10.57;5.90;;;-0.10;1.00;;;2.18;100.00;94577.03;5028356;28;20693;-66
2023/03/06 03:40:13;;;;;;;10.23;5.53;;;-0.10;1.00;;;2.20;100.00;94582.06;5034985;28;20221;-66
2023/03/06 03:42:40;;;;;;;10.87;5.33;;;-0.10;1.00;;;2.18;100.00;94579.66;5028172;28;20218;-66
2023/03/06 03:45:09;;;;;;;9.83;5.23;;;-0.10;1.00;;;2.08;100.00;94583.91;5031359;28;20210;-66
2023/03/06 03:47:35;;;;;;;11.00;5.23;;;-0.10;1.00;;;2.07;100.00;94582.28;5029399;28;20381;-66
2023/03/06 03:50:02;;;;;;;11.47;6.00;;;-0.10;1.00;;;2.13;100.00;94581.41;5031238;28;20206;-67
2023/03/06 03:52:30;;;;;;;10.87;6.10;;;-0.20;1.00;;;2.08;100.00;94574.19;5031591;28;20268;-67
2023/03/06 03:54:58;;;;;;;9.40;5.43;;;-0.20;1.00;;;2.05;100.00;94573.84;5031286;28;20234;-66
2023/03/06 03:57:24;;;;;;;9.53;5.07;;;-0.20;1.00;;;2.00;100.00;94576.38;5029358;28;20664;-66
2023/03/06 03:59:51;;;;;;;11.33;5.73;;;-0.20;1.00;;;1.95;100.00;94574.44;5032139;28;20264;-66
2023/03/06 04:02:20;;;;;;;9.90;5.37;;;-0.30;1.00;;;1.94;100.00;94572.81;5030291;28;20210;-66
2023/03/06 04:04:47;;;;;;;10.33;5.57;;;-0.30;1.00;;;1.96;100.00;94573.41;5029333;28;20206;-66
2023/03/06 04:07:14;;;;;;;10.47;6.13;;;-0.30;1.00;;;2.00;100.00;94568.50;5033979;28;20207;-66
2023/03/06 04:09:42;;;;;;;10.43;5.63;;;-0.30;1.00;;;1.87;100.00;94566.91;5031385;28;20207;-67
2023/03/06 04:12:09;;;;;;;10.00;4.97;;;-0.40;1.00;;;1.88;100.00;94557.22;5028276;28;20210;-66
2023/03/06 04:14:36;;;;;;;10.80;6.10;;;-0.40;1.00;;;1.89;100.00;94562.22;5031342;28;20433;-66
2023/03/06 04:17:03;;;;;;;13.37;6.13;;;-0.40;1.00;;;1.90;100.00;94555.94;5030630;28;20241;-67
2023/03/06 04:19:30;;;;;;;9.80;5.87;;;-0.40;1.00;;;1.75;100.00;94554.81;5029871;28;20213;-66
2023/03/06 04:21:56;;;;;;;11.67;6.00;;;-0.40;1.00;;;1.83;100.00;94550.00;5026424;28;20260;-67
2023/03/06 04:24:23;;;;;;;10.33;5.33;;;-0.40;1.00;;;1.82;100.00;94543.16;5027264;28;20234;-67
2023/03/06 04:26:51;;;;;;;10.30;6.17;;;-0.40;1.00;;;1.84;100.00;94546.34;5029779;28;20264;-67
2023/03/06 04:29:18;;;;;;;10.13;5.30;;;-0.50;1.00;;;1.69;100.00;94540.75;5019812;28;20260;-66
2023/03/06 04:31:45;;;;;;;8.30;5.13;;;-0.50;1.00;;;1.76;100.00;94543.28;5030322;28;20209;-67
2023/03/06 04:34:11;;;;;;;10.23;5.60;;;-0.50;1.00;;;1.76;100.00;94540.63;5028356;28;20801;-66
2023/03/06 04:36:43;;;;;;;10.40;5.80;;;-0.50;1.00;;;1.76;100.00;94538.00;5029710;28;20663;-66
2023/03/06 04:39:11;;;;;;;9.47;5.47;;;-0.60;1.00;;;1.77;100.00;94537.78;5028416;28;20205;-67
2023/03/06 04:41:39;;;;;;;9.97;5.87;;;-0.50;1.00;;;1.75;100.00;94534.59;5030771;28;20264;-66
2023/03/06 04:44:08;;;;;;;8.90;5.37;;;-0.60;1.00;;;1.73;100.00;94526.13;5027335;28;20206;-66
2023/03/06 04:46:36;;;;;;;10.93;5.43;;;-0.60;1.00;;;1.75;100.00;94533.78;5028903;28;20210;-66
2023/03/06 04:49:03;;;;;;;12.30;6.10;;;-0.60;1.00;;;1.74;100.00;94527.72;5028570;28;20586;-66
2023/03/06 04:51:30;;;;;;;10.40;5.40;;;-0.60;1.00;;;1.67;100.00;94527.06;5026156;28;20694;-67
2023/03/06 04:53:57;;;;;;;12.27;5.93;;;-0.50;1.00;;;1.62;100.00;94526.16;5029544;28;20226;-66
2023/03/06 04:56:24;;;;;;;11.80;5.90;;;-0.60;1.00;;;1.71;100.00;94522.94;5025004;28;20218;-66
2023/03/06 04:58:50;;;;;;;11.53;5.83;;;-0.50;1.00;;;1.70;100.00;94518.72;5024130;28;20653;-67
2023/03/06 05:01:18;;;;;;;10.33;5.70;;;-0.60;1.00;;;1.75;100.00;94518.84;5029098;28;20265;-66
2023/03/06 05:03:45;;;;;;;10.23;5.97;;;-0.60;1.00;;;1.69;100.00;94526.84;5025545;28;20237;-66
2023/03/06 05:06:12;;;;;;;13.30;5.97;;;-0.60;1.00;;;1.76;100.00;94532.75;5029124;28;20585;-66
2023/03/06 05:08:39;;;;;;;11.27;5.23;;;-0.50;1.00;;;1.82;100.00;94529.19;5028309;28;20210;-67
2023/03/06 05:11:06;;;;;;;15.17;6.20;;;-0.50;1.00;;;1.84;100.00;94533.19;5025090;28;20209;-66
2023/03/06 05:13:33;;;;;;;11.67;6.30;;;-0.50;1.00;;;1.82;100.00;94527.38;5021215;28;20269;-66
2023/03/06 05:16:04;;;;;;;12.30;6.07;;;-0.40;1.00;;;1.85;100.00;94529.56;5026679;28;20214;-67
2023/03/06 05:18:35;;;;;;;10.03;6.07;;;-0.40;1.00;;;1.87;100.00;94524.84;5029088;28;20214;-66
2023/03/06 05:21:02;;;;;;;9.70;5.53;;;-0.50;1.00;;;1.86;100.00;94531.16;5023781;28;20206;-66
2023/03/06 05:23:32;;;;;;;10.93;5.43;;;-0.50;1.00;;;1.87;100.00;94524.84;5028586;28;20279;-66
2023/03/06 05:26:00;;;;;;;12.77;5.67;;;-0.40;1.00;;;1.81;100.00;94532.88;5029373;28;21295;-67
2023/03/06 05:28:27;;;;;;;11.13;5.63;;;-0.50;1.00;;;1.89;100.00;94532.50;5026988;28;20275;-67
2023/03/06 05:30:54;;;;;;;10.83;5.57;;;-0.50;1.00;;;1.90;100.00;94527.03;5028745;28;20202;-66
2023/03/06 05:33:21;;;;;;;9.37;5.33;;;-0.40;1.00;;;1.92;100.00;94529.41;5028702;28;20635;-67
2023/03/06 05:35:49;;;;;;;8.33;4.83;;;-0.40;1.00;;;1.98;100.00;94521.41;5028499;28;20238;-67
2023/03/06 05:38:16;;;;;;;11.47;5.23;;;-0.40;1.00;;;1.94;100.00;94506.34;5027961;28;20206;-67
2023/03/06 05:40:45;;;;;;;12.90;4.83;;;-0.40;1.00;;;1.94;100.00;94503.72;5031628;28;20338;-67
2023/03/06 05:43:12;;;;;;;13.33;5.90;;;-0.40;1.00;;;1.91;100.00;94510.22;5025114;28;20222;-67
2023/03/06 05:45:40;;;;;;;10.93;5.43;;;-0.40;1.00;;;1.86;100.00;94509.31;5027294;28;20266;-67
2023/03/06 05:48:08;;;;;;;10.33;5.60;;;-0.40;1.00;;;1.91;100.00;94509.41;5027736;28;20202;-67
2023/03/06 05:50:34;;;;;;;9.97;5.07;;;-0.40;1.00;;;1.88;100.00;94510.69;5029483;28;20213;-68
2023/03/06 05:53:03;;;;;;;11.97;6.13;;;-0.40;1.00;;;1.94;100.00;94512.38;5027137;28;20619;-67
2023/03/06 05:55:30;;;;;;;9.70;4.83;;;-0.30;1.00;;;2.03;100.00;94508.34;5028880;28;20230;-67
2023/03/06 05:57:56;;;;;;;9.93;5.73;;;-0.20;1.00;;;2.03;100.00;94523.34;5027362;28;20202;-67
2023/03/06 06:00:24;;;;;;;10.90;5.33;;;-0.30;1.00;;;2.03;100.00;94520.72;5028335;28;20206;-67
2023/03/06 06:02:51;;;;;;;10.87;5.33;;;-0.30;1.00;;;2.04;100.00;94515.19;5029817;28;20495;-67
2023/03/06 06:05:18;;;;;;;11.80;5.83;;;-0.30;1.00;;;2.06;100.00;94520.22;5026228;28;20209;-68
2023/03/06 06:07:45;;;;;;;11.17;6.17;;;-0.20;1.00;;;2.15;100.00;94521.47;5025363;28;20214;-69
2023/03/06 06:10:14;;;;;;;13.73;6.97;;;-0.10;1.00;;;2.22;100.00;94516.84;5026794;28;20210;-67
2023/03/06 06:12:40;;;;;;;13.30;6.40;;;-0.10;1.00;;;2.14;100.00;94518.03;5024733;28;20206;-68
2023/03/06 06:15:08;;;;;;;12.53;7.03;;;0.00;1.00;;;2.31;100.00;94512.84;5024416;28;20898;-67
2023/03/06 06:17:35;;;;;;;11.30;6.10;;;0.00;1.00;;;2.27;100.00;94515.13;5033661;28;20259;-68
2023/03/06 06:20:03;;;;;;;11.80;6.47;;;0.00;1.00;;;2.33;100.00;94511.56;5028593;28;20664;-67
2023/03/06 06:22:30;;;;;;;10.73;5.93;;;0.10;1.00;;;2.31;100.00;94513.63;5028381;28;20309;-68
2023/03/06 06:24:57;;;;;;;13.57;6.53;;;0.10;1.00;;;2.25;100.00;94513.78;5022330;28;20206;-66
2023/03/06 06:27:25;;;;;;;11.17;6.43;;;0.10;1.00;;;2.27;100.00;94512.50;5030734;28;20275;-67
2023/03/06 06:29:52;;;;;;;12.43;6.27;;;0.10;1.00;;;2.37;100.00;94517.16;5030383;28;20222;-64
2023/03/06 06:32:19;;;;;;;10.40;5.50;;;0.10;1.00;;;2.41;100.00;94520.91;5032356;28;20306;-65
2023/03/06 06:34:45;;;;;;;15.30;6.20;;;0.20;1.00;;;2.44;100.00;94521.22;5028180;28;20230;-62
2023/03/06 06:37:12;;;;;;;8.97;5.83;;;0.20;1.00;;;2.42;100.00;94517.25;5027513;28;20632;-62
2023/03/06 06:39:40;;;;;;;10.33;5.57;;;0.20;1.00;;;2.37;100.00;94525.03;5028041;28;20256;-62
2023/03/06 06:42:08;;;;;;;10.77;5.93;;;0.20;1.00;;;2.46;100.00;94524.44;5031807;28;21009;-62
2023/03/06 06:44:37;;;;;;;11.87;5.97;;;0.30;1.00;;;2.56;100.00;94516.72;5032666;28;20210;-62
2023/03/06 06:47:05;;;;;;;10.83;6.20;;;0.30;1.00;;;2.56;100.00;94521.19;5030597;28;20252;-63
2023/03/06 06:49:32;;;;;;;11.63;5.60;;;0.30;1.00;;;2.67;100.00;94518.50;5030131;28;20261;-64
2023/03/06 06:51:59;;;;;;;16.60;5.87;;;0.40;1.00;;;2.66;100.00;94524.00;5031218;28;20260;-64
2023/03/06 06:54:27;;;;;;;12.60;6.57;;;0.40;1.00;;;2.76;100.00;94522.34;5024345;28;20233;-63
2023/03/06 06:56:54;;;;;;;9.87;5.67;;;0.40;1.00;;;2.65;100.00;94523.19;5030597;28;20245;-64
2023/03/06 06:59:22;;;;;;;11.00;6.00;;;0.50;1.00;;;2.73;100.00;94530.72;5031168;28;20214;-64
2023/03/06 07:01:50;;;;;;;11.23;6.47;;;0.50;1.00;;;2.74;100.00;94537.56;5029248;28;20280;-63
2023/03/06 07:04:17;;;;;;;9.83;5.30;;;0.50;1.00;;;2.76;100.00;94537.34;5028547;28;20214;-63
2023/03/06 07:06:45;;;;;;;13.57;6.07;;;0.50;1.00;;;2.77;100.00;94537.09;5026355;28;20206;-63
2023/03/06 07:09:12;;;;;;;11.93;5.90;;;0.50;1.00;;;2.90;100.00;94536.00;5031087;28;20925;-63
2023/03/06 07:11:39;;;;;;;11.10;6.17;;;0.60;1.00;;;2.75;100.00;94541.78;5029117;28;20210;-64
2023/03/06 07:14:06;;;;;;;10.03;5.30;;;0.60;1.00;;;2.78;100.00;94536.06;5030858;28;20207;-63
2023/03/06 07:16:33;;;;;;;9.27;5.37;;;0.60;1.00;;;2.77;100.00;94545.00;5026799;28;20206;-63
2023/03/06 07:19:01;;;;;;;9.73;5.73;;;0.60;1.00;;;2.87;100.00;94547.00;5031650;28;20215;-63
2023/03/06 07:21:28;;;;;;;12.47;5.70;;;0.70;1.00;;;2.88;100.00;94553.84;5029238;28;20233;-63
2023/03/06 07:23:56;;;;;;;10.23;6.10;;;0.70;1.00;;;3.00;100.00;94558.00;5037544;28;20990;-63
2023/03/06 07:26:23;;;;;;;11.57;6.17;;;0.70;1.00;;;2.85;100.00;94555.13;5026234;28;20280;-63
2023/03/06 07:28:51;;;;;;;12.27;5.37;;;0.70;1.00;;;2.78;100.00;94553.66;5030220;28;20217;-63
2023/03/06 07:31:20;;;;;;;9.40;5.40;;;0.70;1.00;;;2.87;100.00;94555.69;5028752;28;20637;-63
2023/03/06 07:33:47;;;;;;;10.07;5.73;;;0.70;1.00;;;2.80;100.00;94552.41;5031853;28;20234;-63
2023/03/06 07:36:16;;;;;;;10.23;5.10;;;0.80;1.00;;;2.95;100.00;94550.03;5026114;28;20237;-62
2023/03/06 07:38:43;;;;;;;11.00;5.90;;;0.80;1.00;;;3.01;100.00;94554.34;5029717;28;20217;-62
2023/03/06 07:41:12;;;;;;;9.07;5.37;;;0.80;1.00;;;3.15;100.00;94554.84;5027894;28;20210;-62
2023/03/06 07:43:39;;;;;;;11.90;5.83;;;0.80;1.00;;;3.11;100.00;94551.88;5025820;28;20289;-63
2023/03/06 07:46:06;;;;;;;10.53;5.90;;;0.90;1.00;;;3.14;100.00;94551.41;5030400;28;20256;-62
2023/03/06 07:48:34;;;;;;;9.90;5.87;;;0.90;1.00;;;3.06;100.00;94561.53;5027606;28;20750;-63
2023/03/06 07:51:03;;;;;;;10.93;5.40;;;0.90;1.00;;;3.20;100.00;94560.97;5029691;28;20211;-67
2023/03/06 07:53:32;;;;;;;10.50;5.93;;;0.90;1.00;;;3.15;100.00;94560.13;5028352;28;20215;-65
2023/03/06 07:55:59;;;;;;;8.60;5.13;;;0.90;1.00;;;3.25;100.00;94561.06;5029645;28;20272;-62
2023/03/06 07:58:26;;;;;;;11.07;5.43;;;0.90;1.00;;;3.08;100.00;94560.25;5027886;28;20214;-63
2023/03/06 08:00:53;;;;;;;10.87;5.43;;;0.90;1.00;;;3.13;100.00;94555.09;5029838;28;20209;-63
2023/03/06 08:03:20;;;;;;;10.47;5.90;;;0.90;1.00;;;2.96;100.00;94564.78;5028320;28;20214;-63
2023/03/06 08:05:47;;;;;;;10.17;5.67;;;0.90;1.00;;;3.14;100.00;94564.56;5028762;28;20207;-67
2023/03/06 08:08:14;;;;;;;8.93;5.43;;;0.90;1.00;;;3.20;100.00;94562.84;5025566;28;20585;-62
2023/03/06 08:10:48;;;;;;;13.77;5.80;;;1.00;1.00;;;3.13;100.00;94555.09;5033698;28;20268;-66
2023/03/06 08:13:14;;;;;;;9.70;5.40;;;1.00;1.00;;;3.31;100.00;94556.69;5025150;28;20217;-63
2023/03/06 08:15:47;;;;;;;11.80;6.63;;;1.00;1.00;;;3.34;100.00;94557.00;5029899;28;20219;-63
2023/03/06 08:18:14;;;;;;;11.77;5.63;;;1.10;1.00;;;3.48;100.00;94550.38;5026815;28;20727;-62
2023/03/06 08:20:41;;;;;;;8.70;5.33;;;1.10;1.00;;;3.59;100.00;94557.38;5028014;28;20214;-62
2023/03/06 08:23:08;;;;;;;9.53;5.80;;;1.20;1.00;;;3.65;100.00;94566.16;5026167;28;21510;-63
2023/03/06 08:25:36;;;;;;;9.70;5.30;;;1.20;1.00;;;3.46;100.00;94562.97;5023659;28;20206;-62
2023/03/06 08:28:04;;;;;;;9.47;5.50;;;1.30;1.00;;;3.58;100.00;94576.88;5029525;28;20269;-62
2023/03/06 08:30:31;;;;;;;9.23;5.07;;;1.30;1.00;;;3.67;100.00;94579.91;5028079;28;20261;-63
2023/03/06 08:32:58;;;;;;;8.67;5.50;;;1.30;1.00;;;3.61;100.00;94570.31;5030470;28;20253;-63
2023/03/06 08:35:24;;;;;;;10.23;6.00;;;1.30;1.00;;;3.58;100.00;94570.78;5028909;28;20226;-63
2023/03/06 08:37:51;;;;;;;8.80;5.47;;;1.30;1.00;;;3.66;100.00;94568.53;5028766;28;20212;-62
2023/03/06 08:40:19;;;;;;;9.60;5.67;;;1.30;1.00;;;3.84;100.00;94572.75;5028899;28;20208;-63
2023/03/06 08:42:47;;;;;;;8.97;5.43;;;1.50;1.00;;;3.61;100.00;94565.03;5028805;28;20210;-63
2023/03/06 08:45:16;;;;;;;10.33;5.67;;;1.40;1.00;;;3.73;100.00;94573.66;5026391;28;20249;-62
2023/03/06 08:47:42;;;;;;;10.90;5.73;;;1.40;1.00;;;3.71;100.00;94573.88;5025822;28;20207;-62
2023/03/06 08:50:11;;;;;;;10.27;5.77;;;1.50;1.00;;;3.49;100.00;94572.22;5026556;28;20215;-62
2023/03/06 08:52:38;;;;;;;8.73;4.40;;;1.30;1.00;;;3.56;100.00;94572.88;5026363;28;20580;-62
2023/03/06 08:55:06;;;;;;;12.40;6.13;;;1.40;1.00;;;3.80;100.00;94575.06;5027175;28;20226;-62
2023/03/06 08:57:33;;;;;;;9.43;5.47;;;1.40;1.00;;;3.92;100.00;94578.41;5027780;28;20216;-62
2023/03/06 09:00:00;;;;;;;9.13;5.53;;;1.50;1.00;;;3.91;100.00;94576.81;5028402;28;20895;-62
2023/03/06 09:02:28;;;;;;;10.03;5.60;;;1.50;1.00;;;4.00;100.00;94578.00;5030245;28;20208;-62
2023/03/06 09:04:55;;;;;;;9.60;5.60;;;1.60;1.00;;;3.91;100.00;94579.44;5025191;28;20215;-62
2023/03/06 09:07:21;;;;;;;7.93;4.80;;;1.60;1.00;;;4.07;100.00;94577.81;5027327;28;20283;-62
2023/03/06 09:09:48;;;;;;;9.17;5.03;;;1.60;1.00;;;4.10;100.00;94574.69;5024968;28;20215;-62
2023/03/06 09:12:15;;;;;;;8.60;4.97;;;1.70;1.00;;;3.78;100.00;94579.81;5024468;28;20215;-62
2023/03/06 09:14:42;;;;;;;9.23;4.93;;;1.60;1.00;;;3.64;100.00;94591.72;5027735;28;20207;-62
2023/03/06 09:17:09;;;;;;;8.63;5.40;;;1.50;1.00;;;3.88;100.00;94589.69;5028859;28;20207;-62
2023/03/06 09:19:37;;;;;;;8.73;4.77;;;1.50;1.00;;;3.67;100.00;94591.22;5026990;28;20256;-62
2023/03/06 09:22:04;;;;;;;8.87;5.23;;;1.50;1.00;;;3.34;100.00;94595.72;5028124;28;20207;-62
2023/03/06 09:24:31;;;;;;;8.57;5.00;;;1.40;1.00;;;3.72;100.00;94593.94;5029197;28;20242;-62
2023/03/06 09:26:58;;;;;;;10.23;5.60;;;1.50;1.00;;;3.79;100.00;94591.13;5026455;28;20206;-62
2023/03/06 09:29:25;;;;;;;8.30;5.07;;;1.40;1.00;;;3.67;100.00;94599.13;5027507;28;20215;-63
2023/03/06 09:31:51;;;;;;;8.53;5.13;;;1.40;1.00;;;3.76;100.00;94594.28;5026619;28;20211;-62
2023/03/06 09:34:19;;;;;;;10.67;5.90;;;1.40;1.00;;;3.86;100.00;94599.69;5029289;28;20291;-62
2023/03/06 09:36:47;;;;;;;9.47;5.83;;;1.50;1.00;;;3.75;100.00;94597.91;5027621;28;20578;-62
2023/03/06 09:39:14;;;;;;;8.70;5.40;;;1.50;1.00;;;3.66;100.00;94602.03;5026230;28;20665;-62
2023/03/06 09:41:42;;;;;;;9.63;5.63;;;1.50;1.00;;;3.70;100.00;94597.84;5027458;28;20605;-62
2023/03/06 09:44:14;;;;;;;10.77;6.10;;;1.50;1.00;;;3.59;100.00;94604.81;5025993;28;20631;-62
2023/03/06 09:47:05;;;;;;;9.63;5.83;;;1.40;1.00;;;3.58;100.00;94602.41;5024974;28;20203;-62
2023/03/06 09:49:54;;;;;;;9.07;5.50;;;1.40;1.00;;;3.73;100.00;94594.75;5028081;28;20622;-62
2023/03/06 09:52:33;;;;;;;11.20;5.10;;;1.50;1.00;;;3.89;100.00;94599.19;5028550;28;20262;-62
2023/03/06 09:55:11;;;;;;;9.07;5.47;;;1.60;1.00;;;3.87;100.00;94598.63;5026059;28;20214;-63
2023/03/06 09:57:43;;;;;;;10.80;6.13;;;1.60;1.00;;;3.93;100.00;94603.75;5029331;28;20286;-62
2023/03/06 10:00:15;;;;;;;9.97;5.30;;;1.60;1.00;;;3.98;100.00;94603.00;5031242;28;20214;-62
2023/03/06 10:02:45;;;;;;;9.90;5.30;;;1.70;1.00;;;3.98;100.00;94597.75;5028240;28;20266;-62
2023/03/06 10:05:18;;;;;;;8.47;5.53;;;1.70;1.00;;;4.14;100.00;94596.91;5029284;28;20215;-62
2023/03/06 10:07:53;;;;;;;9.73;5.97;;;1.80;1.00;;;4.21;100.00;94598.31;5032507;28;20250;-62
2023/03/06 10:10:23;;;;;;;9.37;6.00;;;1.90;1.00;;;4.24;100.00;94599.66;5029693;28;20225;-62
2023/03/06 10:13:02;;;;;;;8.87;5.33;;;1.90;1.00;;;4.14;100.00;94589.78;5032455;28;20247;-62
2023/03/06 10:15:34;;;;;;;8.97;5.33;;;1.90;1.00;;;4.11;100.00;94603.47;5027174;28;20234;-62
2023/03/06 10:18:03;;;;;;;11.73;6.63;;;1.90;1.00;;;4.18;100.00;94592.72;5032797;28;20328;-63
2023/03/06 10:20:48;;;;;;;9.40;5.67;;;1.90;1.00;;;4.40;100.00;94594.34;5030234;28;20708;-62
2023/03/06 10:23:33;;;;;;;9.17;5.37;;;1.90;1.00;;;4.38;100.00;94596.44;5032402;28;20625;-62
2023/03/06 10:26:02;;;;;;;8.17;5.27;;;2.00;1.00;;;4.43;100.00;94596.47;5025735;28;20547;-62
2023/03/06 10:28:36;;;;;;;9.13;5.20;;;2.00;1.00;;;4.64;100.00;94602.78;5030892;28;20213;-62